Aviation Digital Data Service (ADDS)

Output produced by METARs form (1047 UTC 24 November 2017)
found at http://www.aviationweather.gov/adds/metars/
 
KIPT 240954Z AUTO 00000KT 10SM CLR M01/M04 A3002 RMK AO2 SLP173 T10111039
KIPT 240854Z AUTO 10003KT 10SM CLR M01/M04 A3002 RMK AO2 SLP171 T10061044 50002
KIPT 240754Z AUTO 12005KT 10SM BKN065 00/M04 A3002 RMK AO2 SLP172 T00001044
KIPT 240654Z AUTO 00000KT 10SM OVC065 01/M04 A3001 RMK AO2 SLP168 T00111039
KIPT 240554Z AUTO 00000KT 10SM OVC065 01/M03 A3002 RMK AO2 SLP169 T00061033 10022 21006 58004
KIPT 240454Z AUTO 00000KT 10SM OVC070 01/M04 A3003 RMK AO2 SLP172 T00111044 400501022
KIPT 240354Z AUTO 00000KT 10SM OVC075 01/M04 A3003 RMK AO2 SLP174 T00061039
KIPT 240254Z 00000KT 10SM OVC070 00/M04 A3003 RMK AO2 SLP173 T00001039 53006
KIPT 240154Z 00000KT 10SM CLR 00/M05 A3002 RMK AO2 SLP171 T00001050
KIPT 240054Z 00000KT 10SM OVC100 02/M06 A3002 RMK AO2 SLP172 T00171056
KIPT 232354Z 06003KT 10SM CLR 02/M06 A3001 RMK AO2 SLP169 T00171056 10050 20006 55004
KIPT 232254Z 00000KT 10SM OVC110 03/M06 A3001 RMK AO2 SLP166 T00331056
KIPT 232154Z 00000KT 10SM SCT100 02/M06 A3002 RMK AO2 SLP170 T00221056
KIPT 232054Z 28003KT 10SM OVC100 04/M06 A3002 RMK AO2 SLP172 T00441061 56017
KIPT 231954Z 29004KT 10SM OVC100 04/M06 A3002 RMK AO2 SLP171 T00391061
KIPT 231854Z VRB03KT 10SM BKN100 04/M07 A3004 RMK AO2 SLP177 T00391067
KIPT 231754Z VRB03KT 10SM CLR 04/M06 A3007 RMK AO2 SLP189 T00391061 10039 21022 58027
KIPT 231654Z VRB04KT 10SM BKN038 03/M07 A3011 RMK AO2 SLP201 T00331067
KIPT 231554Z 00000KT 10SM OVC037 02/M07 A3014 RMK AO2 SLP212 T00221067
KIPT 231454Z 01003KT 10SM OVC036 02/M07 A3016 RMK AO2 SLP217 T00221072 55000
KIPT 231354Z 00000KT 10SM OVC035 01/M07 A3015 RMK AO2 SLP216 T00111072
KIPT 231254Z 29004KT 10SM OVC036 M01/M07 A3015 RMK AO2 SLP216 T10061072
KIPT 231154Z 32004KT 10SM SCT037 M02/M08 A3016 RMK AO2 SLP217 T10171083 10006 21017 51004
KIPT 231054Z AUTO 34004KT 10SM OVC036 M01/M08 A3015 RMK AO2 SLP215 T10111078
KIPT 230954Z AUTO 35004KT 10SM CLR M01/M08 A3015 RMK AO2 SLP214 T10111078
KIPT 230854Z AUTO 34004KT 10SM SCT038 M01/M07 A3014 RMK AO2 SLP212 T10061072 56007
KIPT 230754Z AUTO 30004KT 10SM BKN039 00/M07 A3015 RMK AO2 SLP215 T00001072
KIPT 230654Z AUTO 32006KT 10SM OVC041 01/M08 A3015 RMK AO2 SLP214 T00061078
KIPT 230554Z AUTO 30003KT 10SM OVC042 01/M07 A3016 RMK AO2 SLP218 T00061072 10028 20006 50001
KIPT 230454Z AUTO 32003KT 10SM BKN041 01/M07 A3016 RMK AO2 SLP218 T00061072 400780006
KIPT 230354Z AUTO 35005KT 10SM OVC042 02/M08 A3016 RMK AO2 SLP217 T00171078
KIPT 230254Z 32006KT 10SM OVC042 02/M07 A3016 RMK AO2 SLP217 T00171072 50002
KIPT 230154Z 30013G21KT 10SM OVC042 02/M08 A3017 RMK AO2 SLP220 T00221078
KIPT 230054Z 32009KT 10SM OVC042 03/M06 A3017 RMK AO2 SLP219 T00281061
KIPT 222354Z 29010KT 10SM OVC044 03/M07 A3015 RMK AO2 SLP214 T00281067 10067 20028 51025
KIPT 222254Z 32010G17KT 10SM OVC044 04/M06 A3014 RMK AO2 SLP210 T00391061